createdAt,value
2019-03-05T00:01:26.318Z,8.43
2019-03-05T00:03:57.873Z,8.38
2019-03-05T00:06:29.850Z,8.33
2019-03-05T00:09:01.767Z,8.36
2019-03-05T00:11:34.955Z,8.34
2019-03-05T00:14:06.471Z,8.44
2019-03-05T00:16:39.055Z,8.59
2019-03-05T00:19:10.635Z,8.39
2019-03-05T00:21:42.148Z,8.37
2019-03-05T00:24:58.044Z,8.31
2019-03-05T00:27:31.051Z,8.38
2019-03-05T00:30:35.471Z,8.38
2019-03-05T00:33:28.778Z,8.42
2019-03-05T00:36:14.738Z,8.26
2019-03-05T00:39:22.295Z,8.33
2019-03-05T00:42:07.218Z,8.29
2019-03-05T00:45:25.410Z,8.28
2019-03-05T00:48:41.262Z,8.21
2019-03-05T00:51:47.486Z,8.20
2019-03-05T00:54:38.983Z,8.07
2019-03-05T00:57:39.760Z,8.08
2019-03-05T01:00:43.220Z,8.16
2019-03-05T01:03:51.383Z,8.09
2019-03-05T01:06:25.579Z,8.01
2019-03-05T01:08:58.095Z,7.96
2019-03-05T01:11:29.630Z,7.96
2019-03-05T01:14:01.371Z,8.00
2019-03-05T01:16:35.597Z,7.97
2019-03-05T01:19:07.397Z,7.94
2019-03-05T01:21:38.997Z,7.87
2019-03-05T01:24:10.511Z,7.88
2019-03-05T01:26:42.030Z,7.86
2019-03-05T01:29:13.649Z,7.81
2019-03-05T01:31:46.976Z,7.74
2019-03-05T01:34:20.196Z,7.81
2019-03-05T01:36:59.758Z,7.68
2019-03-05T01:39:33.831Z,7.64
2019-03-05T01:42:07.174Z,7.56
2019-03-05T01:44:39.969Z,7.49
2019-03-05T01:47:11.582Z,7.54
2019-03-05T01:49:43.406Z,7.49
2019-03-05T01:52:15.784Z,7.58
2019-03-05T01:54:47.585Z,7.54
2019-03-05T01:57:19.148Z,7.51
2019-03-05T01:59:50.651Z,7.51
2019-03-05T02:02:22.244Z,7.38
2019-03-05T02:04:54.140Z,7.40
2019-03-05T02:07:26.150Z,7.48
2019-03-05T02:09:57.712Z,7.54
2019-03-05T02:12:29.265Z,7.47
2019-03-05T02:15:00.947Z,7.40
2019-03-05T02:17:32.826Z,7.46
2019-03-05T02:20:08.271Z,7.38
2019-03-05T02:22:40.007Z,7.32
2019-03-05T02:25:28.349Z,7.28
2019-03-05T02:28:33.340Z,7.32
2019-03-05T02:31:43.251Z,7.42
2019-03-05T02:34:47.778Z,7.36
2019-03-05T02:37:36.214Z,7.37
2019-03-05T02:40:21.434Z,7.39
2019-03-05T02:43:03.711Z,7.33
2019-03-05T02:45:51.893Z,7.35
2019-03-05T02:48:53.647Z,7.29
2019-03-05T02:52:03.349Z,7.28
2019-03-05T02:55:08.106Z,7.26
2019-03-05T02:57:39.389Z,7.25
2019-03-05T03:00:13.003Z,7.23
2019-03-05T03:02:46.217Z,7.31
2019-03-05T03:05:19.373Z,7.32
2019-03-05T03:07:51.133Z,7.42
2019-03-05T03:10:25.319Z,7.42
2019-03-05T03:12:57.036Z,7.38
2019-03-05T03:15:28.602Z,7.38
2019-03-05T03:18:00.188Z,7.34
2019-03-05T03:20:31.707Z,7.41
2019-03-05T03:23:03.239Z,7.42
2019-03-05T03:25:34.789Z,7.51
2019-03-05T03:28:06.365Z,7.50
2019-03-05T03:30:38.183Z,7.48
2019-03-05T03:33:09.807Z,7.57
2019-03-05T03:35:41.394Z,7.59
2019-03-05T03:38:13.369Z,7.66
2019-03-05T03:40:45.422Z,7.63
2019-03-05T03:43:16.937Z,7.69
2019-03-05T03:45:48.453Z,7.87
2019-03-05T03:48:20.023Z,7.80
2019-03-05T03:50:51.683Z,7.82
2019-03-05T03:53:23.217Z,7.79
2019-03-05T03:55:54.962Z,7.78
2019-03-05T03:58:26.607Z,7.73
2019-03-05T04:00:58.347Z,7.77
2019-03-05T04:03:31.612Z,7.64
2019-03-05T04:06:03.635Z,7.63
2019-03-05T04:08:35.199Z,7.64
2019-03-05T04:11:06.738Z,7.65
2019-03-05T04:13:38.470Z,7.69
2019-03-05T04:16:10.036Z,7.67
2019-03-05T04:18:41.609Z,7.59
2019-03-05T04:21:13.570Z,7.47
2019-03-05T04:23:45.331Z,7.37
2019-03-05T04:26:16.835Z,7.40
2019-03-05T04:28:48.338Z,7.37
2019-03-05T04:31:19.948Z,7.42
2019-03-05T04:33:51.471Z,7.43
2019-03-05T04:36:23.529Z,7.40
2019-03-05T04:38:55.121Z,7.37
2019-03-05T04:41:26.774Z,7.30
2019-03-05T04:43:59.418Z,7.33
2019-03-05T04:46:30.766Z,7.33
2019-03-05T04:49:18.495Z,7.36
2019-03-05T04:51:53.120Z,7.34
2019-03-05T04:54:24.747Z,7.29
2019-03-05T04:56:56.340Z,7.28
2019-03-05T04:59:28.065Z,7.39
2019-03-05T05:01:59.548Z,7.36
2019-03-05T05:04:31.192Z,7.39
2019-03-05T05:07:03.174Z,7.32
2019-03-05T05:09:34.782Z,7.35
2019-03-05T05:12:06.319Z,7.32
2019-03-05T05:14:38.095Z,7.30
2019-03-05T05:17:09.644Z,7.29
2019-03-05T05:19:41.445Z,7.31
2019-03-05T05:22:12.955Z,7.21
2019-03-05T05:24:45.521Z,7.15
2019-03-05T05:27:17.088Z,7.13
2019-03-05T05:29:48.612Z,7.25
2019-03-05T05:32:20.217Z,7.21
2019-03-05T05:34:51.890Z,7.28
2019-03-05T05:37:23.544Z,7.29
2019-03-05T05:40:29.076Z,7.29
2019-03-05T05:43:00.792Z,7.24
2019-03-05T05:45:37.546Z,7.32
2019-03-05T05:48:09.182Z,7.51
2019-03-05T05:50:40.874Z,7.51
2019-03-05T05:53:12.472Z,7.49
2019-03-05T05:55:44.214Z,7.48
2019-03-05T05:58:15.866Z,7.47
2019-03-05T06:00:49.220Z,7.55
2019-03-05T06:03:20.805Z,7.52
2019-03-05T06:05:52.382Z,7.58
2019-03-05T06:08:23.984Z,7.64
2019-03-05T06:10:55.587Z,7.67
2019-03-05T06:13:27.694Z,7.78
2019-03-05T06:15:59.476Z,7.77
2019-03-05T06:18:31.058Z,7.73
2019-03-05T06:21:02.837Z,7.70
2019-03-05T06:23:34.478Z,7.77
2019-03-05T06:26:08.553Z,7.83
2019-03-05T06:28:39.719Z,7.82
2019-03-05T06:31:11.632Z,7.82
2019-03-05T06:33:43.363Z,7.83
2019-03-05T06:36:15.084Z,7.78
2019-03-05T06:38:47.016Z,7.84
2019-03-05T06:41:18.919Z,7.89
2019-03-05T06:43:50.579Z,7.85
2019-03-05T06:46:22.356Z,7.92
2019-03-05T06:48:54.144Z,7.88
2019-03-05T06:51:25.909Z,7.99
2019-03-05T06:53:57.691Z,7.97
2019-03-05T06:56:29.466Z,7.96
2019-03-05T06:59:01.160Z,8.02
2019-03-05T07:01:32.969Z,7.98
2019-03-05T07:04:04.712Z,8.09
2019-03-05T07:06:55.803Z,8.17
2019-03-05T07:09:56.817Z,8.12
2019-03-05T07:12:44.643Z,8.11
2019-03-05T07:15:44.686Z,8.12
2019-03-05T07:18:30.321Z,8.23
2019-03-05T07:21:28.166Z,8.25
2019-03-05T07:24:21.939Z,8.34
2019-03-05T07:26:54.403Z,8.45
2019-03-05T07:29:26.007Z,8.46
2019-03-05T07:31:57.518Z,8.53
2019-03-05T07:34:30.807Z,8.54
2019-03-05T07:37:02.413Z,8.52
2019-03-05T07:39:34.428Z,8.38
2019-03-05T07:42:05.940Z,8.37
2019-03-05T07:44:37.440Z,8.32
2019-03-05T07:47:08.959Z,8.36
2019-03-05T07:49:44.078Z,8.26
2019-03-05T07:52:13.778Z,8.22
2019-03-05T07:54:46.413Z,8.16
2019-03-05T07:57:17.907Z,8.26
2019-03-05T07:59:49.495Z,8.22
2019-03-05T08:02:21.069Z,8.32
2019-03-05T08:04:52.671Z,8.32
2019-03-05T08:07:24.285Z,8.29
2019-03-05T08:09:59.650Z,8.26
2019-03-05T08:12:57.384Z,8.19
2019-03-05T08:16:02.734Z,8.16
2019-03-05T08:18:32.967Z,8.11
2019-03-05T08:21:04.904Z,8.10
2019-03-05T08:23:36.645Z,8.11
2019-03-05T08:26:08.358Z,8.19
2019-03-05T08:28:40.014Z,8.23
2019-03-05T08:31:13.076Z,8.06
2019-03-05T08:33:44.900Z,8.17
2019-03-05T08:36:16.757Z,8.15
2019-03-05T08:38:49.356Z,8.23
2019-03-05T08:41:21.368Z,8.21
2019-03-05T08:43:54.297Z,8.17
2019-03-05T08:46:27.196Z,8.26
2019-03-05T08:48:58.931Z,8.18
2019-03-05T08:51:30.857Z,8.27
2019-03-05T08:54:02.528Z,8.42
2019-03-05T08:56:34.425Z,8.46
2019-03-05T08:59:06.235Z,8.59
2019-03-05T09:01:38.426Z,8.73
2019-03-05T09:04:10.649Z,8.83
2019-03-05T09:06:42.333Z,9.01
2019-03-05T09:09:15.431Z,8.92
2019-03-05T09:11:47.830Z,8.96
2019-03-05T09:14:19.506Z,8.94
2019-03-05T09:16:51.508Z,8.89
2019-03-05T09:19:23.830Z,8.94
2019-03-05T09:21:55.398Z,8.98
2019-03-05T09:24:27.067Z,9.07
2019-03-05T09:26:59.115Z,9.01
2019-03-05T09:29:31.133Z,9.14
2019-03-05T09:32:02.824Z,9.17
2019-03-05T09:34:34.689Z,9.48
2019-03-05T09:37:06.531Z,9.71
2019-03-05T09:39:38.405Z,9.84
2019-03-05T09:42:10.204Z,10.02
2019-03-05T09:44:41.885Z,10.11
2019-03-05T09:47:13.817Z,10.10
2019-03-05T09:49:45.806Z,10.02
2019-03-05T09:52:17.628Z,10.06
2019-03-05T09:54:49.535Z,10.11
2019-03-05T09:57:21.272Z,10.14
2019-03-05T09:59:53.137Z,10.05
2019-03-05T10:02:24.978Z,10.08
2019-03-05T10:04:57.045Z,10.09
2019-03-05T10:07:29.107Z,9.89
2019-03-05T10:10:00.905Z,9.85
2019-03-05T10:12:33.719Z,9.93
2019-03-05T10:15:10.060Z,9.96
2019-03-05T10:17:41.849Z,9.93
2019-03-05T10:20:24.134Z,9.91
2019-03-05T10:22:57.915Z,10.01
2019-03-05T10:25:29.543Z,9.92
2019-03-05T10:28:01.273Z,10.00
2019-03-05T10:30:46.358Z,10.24
2019-03-05T10:33:18.565Z,10.36
2019-03-05T10:35:50.270Z,10.48
2019-03-05T10:38:22.002Z,10.70
2019-03-05T10:40:57.819Z,10.63
2019-03-05T10:43:29.784Z,10.40
2019-03-05T10:46:01.603Z,10.38
2019-03-05T10:48:33.356Z,10.31
2019-03-05T10:51:06.326Z,10.27
2019-03-05T10:53:38.264Z,10.03
2019-03-05T10:56:10.065Z,10.06
2019-03-05T10:58:41.832Z,9.96
2019-03-05T11:01:13.755Z,9.97
2019-03-05T11:06:24.660Z,10.08
2019-03-05T11:08:56.667Z,10.06
2019-03-05T11:11:28.461Z,10.20
2019-03-05T11:14:00.147Z,10.28
2019-03-05T11:16:31.855Z,10.30
2019-03-05T11:19:03.699Z,10.06
2019-03-05T11:21:35.558Z,10.10
2019-03-05T11:24:08.644Z,10.25
2019-03-05T11:26:40.289Z,10.31
2019-03-05T11:29:12.101Z,10.46
2019-03-05T11:31:43.808Z,10.65
2019-03-05T11:34:15.587Z,10.73
2019-03-05T11:36:47.234Z,10.82
2019-03-05T11:39:19.103Z,10.84
2019-03-05T11:41:50.868Z,10.92
2019-03-05T11:44:22.601Z,10.95
2019-03-05T11:46:54.544Z,10.78
2019-03-05T11:49:26.377Z,10.90
2019-03-05T11:51:58.103Z,10.96
2019-03-05T11:54:29.897Z,10.99
2019-03-05T11:57:01.821Z,11.08
2019-03-05T11:59:33.487Z,11.15
2019-03-05T12:02:05.479Z,11.16
2019-03-05T12:04:37.467Z,11.24
2019-03-05T12:07:09.147Z,11.09
2019-03-05T12:09:40.751Z,10.98
2019-03-05T12:12:12.467Z,10.92
2019-03-05T12:14:44.267Z,11.19
2019-03-05T12:17:16.118Z,11.16
2019-03-05T12:19:47.874Z,11.33
2019-03-05T12:22:20.238Z,11.34
2019-03-05T12:24:51.953Z,11.32
2019-03-05T12:27:23.759Z,11.37
2019-03-05T12:29:55.361Z,11.29
2019-03-05T12:32:28.358Z,11.06
2019-03-05T12:35:00.482Z,11.02
2019-03-05T12:37:32.115Z,9.48
2019-03-05T12:40:04.909Z,8.85
2019-03-05T12:42:36.561Z,8.70
2019-03-05T12:45:11.738Z,8.61
2019-03-05T12:47:43.742Z,8.14
2019-03-05T12:50:21.781Z,8.10
2019-03-05T12:52:54.843Z,8.10
2019-03-05T12:55:26.661Z,8.13
2019-03-05T12:57:58.557Z,8.04
2019-03-05T13:00:33.585Z,7.90
2019-03-05T13:03:05.434Z,8.11
2019-03-05T13:05:37.292Z,7.97
2019-03-05T13:08:09.064Z,8.00
2019-03-05T13:10:40.927Z,8.13
2019-03-05T13:13:13.952Z,8.21
2019-03-05T13:15:46.022Z,8.11
2019-03-05T13:18:17.872Z,8.13
2019-03-05T13:20:49.780Z,8.05
2019-03-05T13:23:22.203Z,7.98
2019-03-05T13:25:53.760Z,8.05
2019-03-05T13:28:25.542Z,8.18
2019-03-05T13:31:00.370Z,8.07
2019-03-05T13:33:33.595Z,8.03
2019-03-05T13:36:05.092Z,7.98
2019-03-05T13:38:41.850Z,8.15
2019-03-05T13:41:15.586Z,8.23
2019-03-05T13:43:46.800Z,8.13
2019-03-05T13:46:21.922Z,8.13
2019-03-05T13:49:02.630Z,8.29
2019-03-05T13:51:48.109Z,8.35
2019-03-05T13:54:36.830Z,8.29
2019-03-05T13:57:51.339Z,8.47
2019-03-05T14:00:23.207Z,8.76
2019-03-05T14:03:17.779Z,8.94
2019-03-05T14:06:15.293Z,8.96
2019-03-05T14:09:14.949Z,9.13
2019-03-05T14:11:48.953Z,9.26
2019-03-05T14:14:23.170Z,9.37
2019-03-05T14:17:02.893Z,9.50
2019-03-05T14:19:34.814Z,9.61
2019-03-05T14:22:06.601Z,9.75
2019-03-05T14:24:38.545Z,9.70
2019-03-05T14:27:10.071Z,9.85
2019-03-05T14:29:41.929Z,9.95
2019-03-05T14:32:13.748Z,9.82
2019-03-05T14:34:50.314Z,9.78
2019-03-05T14:37:22.160Z,9.77
2019-03-05T14:39:53.959Z,9.72
2019-03-05T14:42:25.670Z,9.76
2019-03-05T14:44:57.527Z,9.77
2019-03-05T14:47:29.310Z,9.82
2019-03-05T14:50:01.290Z,9.87
2019-03-05T14:52:33.087Z,9.95
2019-03-05T14:55:09.681Z,9.81
2019-03-05T14:57:41.380Z,9.98
2019-03-05T15:00:18.308Z,9.71
2019-03-05T15:02:50.011Z,9.57
2019-03-05T15:05:22.011Z,9.61
2019-03-05T15:07:53.606Z,9.55
2019-03-05T15:10:25.813Z,9.54
2019-03-05T15:12:57.564Z,9.55
2019-03-05T15:15:31.964Z,9.66
2019-03-05T15:18:03.679Z,9.64
2019-03-05T15:20:35.516Z,9.68
2019-03-05T15:23:08.475Z,9.81
2019-03-05T15:25:40.083Z,9.88
2019-03-05T15:28:11.729Z,9.92
2019-03-05T15:30:49.317Z,9.96
2019-03-05T15:33:23.972Z,9.70
2019-03-05T15:35:56.419Z,9.72
2019-03-05T15:38:43.564Z,9.61
2019-03-05T15:41:46.011Z,9.60
2019-03-05T15:44:21.959Z,9.70
2019-03-05T15:46:55.891Z,9.65
2019-03-05T15:50:17.246Z,9.59
2019-03-05T15:53:00.582Z,9.52
2019-03-05T15:55:34.108Z,9.55
2019-03-05T15:58:06.354Z,9.56
2019-03-05T16:00:37.939Z,9.52
2019-03-05T16:03:09.581Z,9.56
2019-03-05T16:05:41.311Z,9.54
2019-03-05T16:08:12.947Z,9.60
2019-03-05T16:10:44.553Z,9.73
2019-03-05T16:13:19.326Z,9.64
2019-03-05T16:15:49.439Z,9.50
2019-03-05T16:18:21.019Z,9.59
2019-03-05T16:20:52.927Z,9.62
2019-03-05T16:23:28.466Z,9.32
2019-03-05T16:25:58.884Z,8.97
2019-03-05T16:28:30.467Z,8.88
2019-03-05T16:31:03.605Z,8.92
2019-03-05T16:33:38.537Z,9.00
2019-03-05T16:36:29.126Z,8.85
2019-03-05T16:39:02.802Z,8.75
2019-03-05T16:41:57.387Z,8.84
2019-03-05T16:44:33.177Z,8.80
2019-03-05T16:47:18.902Z,8.76
2019-03-05T16:50:08.392Z,8.67
2019-03-05T16:52:47.391Z,8.61
2019-03-05T16:55:21.456Z,8.48
2019-03-05T16:57:55.912Z,8.45
2019-03-05T17:00:48.951Z,8.38
2019-03-05T17:03:21.112Z,8.32
2019-03-05T17:05:54.611Z,8.17
2019-03-05T17:08:33.914Z,8.04
2019-03-05T17:11:05.327Z,7.84
2019-03-05T17:13:37.007Z,7.74
2019-03-05T17:16:08.752Z,7.79
2019-03-05T17:18:40.738Z,7.86
2019-03-05T17:21:12.330Z,7.88
2019-03-05T17:23:46.792Z,7.83
2019-03-05T17:26:18.575Z,7.89
2019-03-05T17:28:50.506Z,7.92
2019-03-05T17:31:22.271Z,7.85
2019-03-05T17:33:55.208Z,7.90
2019-03-05T17:36:28.584Z,7.86
2019-03-05T17:39:01.991Z,7.81
2019-03-05T17:41:35.276Z,7.75
2019-03-05T17:44:07.190Z,7.69
2019-03-05T17:46:41.863Z,7.59
2019-03-05T17:49:15.490Z,7.66
2019-03-05T17:51:47.086Z,7.78
2019-03-05T17:54:18.771Z,7.78
2019-03-05T17:56:50.446Z,7.72
2019-03-05T17:59:22.275Z,7.60
2019-03-05T18:01:54.030Z,7.57
2019-03-05T18:04:25.742Z,7.58
2019-03-05T18:06:59.477Z,7.61
2019-03-05T18:09:31.181Z,7.47
2019-03-05T18:12:02.951Z,7.30
2019-03-05T18:14:34.614Z,7.27
2019-03-05T18:17:06.199Z,7.35
2019-03-05T18:19:39.673Z,7.22
2019-03-05T18:22:11.285Z,7.21
2019-03-05T18:24:42.996Z,7.16
2019-03-05T18:27:16.062Z,7.16
2019-03-05T18:29:48.133Z,7.29
2019-03-05T18:32:20.803Z,7.18
2019-03-05T18:34:52.553Z,7.14
2019-03-05T18:37:24.234Z,7.13
2019-03-05T18:39:55.819Z,7.19
2019-03-05T18:42:27.469Z,7.06
2019-03-05T18:44:59.509Z,7.04
2019-03-05T18:47:32.188Z,7.03
2019-03-05T18:50:10.003Z,7.08
2019-03-05T18:52:42.640Z,7.10
2019-03-05T18:55:17.862Z,7.07
2019-03-05T18:57:50.590Z,7.10
2019-03-05T19:00:34.477Z,7.21
2019-03-05T19:03:13.560Z,7.21
2019-03-05T19:05:46.576Z,7.20
2019-03-05T19:08:19.302Z,7.26
2019-03-05T19:10:51.811Z,7.09
2019-03-05T19:13:23.783Z,7.01
2019-03-05T19:15:57.802Z,6.96
2019-03-05T19:18:30.534Z,6.90
2019-03-05T19:21:03.561Z,7.01
2019-03-05T19:23:35.209Z,6.86
2019-03-05T19:26:07.911Z,6.85
2019-03-05T19:28:39.972Z,6.74
2019-03-05T19:31:11.825Z,6.76
2019-03-05T19:33:43.823Z,6.82
2019-03-05T19:36:15.561Z,6.83
2019-03-05T19:38:47.732Z,6.79
2019-03-05T19:41:40.117Z,6.84
2019-03-05T19:44:13.605Z,6.68
2019-03-05T19:46:45.223Z,6.66
2019-03-05T19:49:21.793Z,6.65
2019-03-05T19:54:49.324Z,6.61
2019-03-05T19:57:20.983Z,6.65
2019-03-05T19:59:52.720Z,6.69
2019-03-05T20:02:24.390Z,6.61
2019-03-05T20:04:55.994Z,6.59
2019-03-05T20:07:30.816Z,6.70
2019-03-05T20:10:05.201Z,6.68
2019-03-05T20:12:54.978Z,6.77
2019-03-05T20:15:28.343Z,6.70
2019-03-05T20:18:02.021Z,6.72
2019-03-05T20:20:35.395Z,6.66
2019-03-05T20:23:07.030Z,6.64
2019-03-05T20:25:38.800Z,6.66
2019-03-05T20:28:11.478Z,6.69
2019-03-05T20:30:43.111Z,6.76
2019-03-05T20:33:14.840Z,6.64
2019-03-05T20:35:49.294Z,6.69
2019-03-05T20:38:21.039Z,6.86
2019-03-05T20:40:53.642Z,6.84
2019-03-05T20:43:25.407Z,6.71
2019-03-05T20:46:04.982Z,6.52
2019-03-05T20:48:37.158Z,6.54
2019-03-05T20:51:09.890Z,6.52
2019-03-05T20:53:41.570Z,6.60
2019-03-05T20:56:14.233Z,6.60
2019-03-05T20:58:46.242Z,6.73
2019-03-05T21:01:19.937Z,6.71
2019-03-05T21:06:41.038Z,6.62
2019-03-05T21:09:21.472Z,6.58
2019-03-05T21:11:53.113Z,6.55
2019-03-05T21:14:25.731Z,6.54
2019-03-05T21:16:57.364Z,6.46
2019-03-05T21:19:29.105Z,6.47
2019-03-05T21:22:00.711Z,6.47
2019-03-05T21:24:32.297Z,6.41
2019-03-05T21:27:03.882Z,6.32
2019-03-05T21:29:35.903Z,6.43
2019-03-05T21:32:07.645Z,6.49
2019-03-05T21:34:39.435Z,6.62
2019-03-05T21:37:11.043Z,6.65
2019-03-05T21:39:42.819Z,6.54
2019-03-05T21:42:14.541Z,6.52
2019-03-05T21:44:46.247Z,6.57
2019-03-05T21:47:18.042Z,6.63
2019-03-05T21:49:49.566Z,6.59
2019-03-05T21:52:21.160Z,6.63
2019-03-05T21:54:53.338Z,6.58
2019-03-05T21:57:26.034Z,6.49
2019-03-05T21:59:57.674Z,6.54
2019-03-05T22:02:29.287Z,6.31
2019-03-05T22:05:01.173Z,6.29
2019-03-05T22:07:32.870Z,6.35
2019-03-05T22:10:07.659Z,6.35
2019-03-05T22:12:39.354Z,6.37
2019-03-05T22:15:27.008Z,6.30
2019-03-05T22:17:58.670Z,6.34
2019-03-05T22:20:31.389Z,6.46
2019-03-05T22:23:03.340Z,6.35
2019-03-05T22:25:35.087Z,6.16
2019-03-05T22:28:07.281Z,6.33
2019-03-05T22:30:40.068Z,6.38
2019-03-05T22:33:13.598Z,6.22
2019-03-05T22:35:45.331Z,6.20
2019-03-05T22:38:17.059Z,6.25
2019-03-05T22:40:48.769Z,6.20
2019-03-05T22:43:22.380Z,6.19
2019-03-05T22:45:54.201Z,6.21
2019-03-05T22:48:25.870Z,6.25
2019-03-05T22:50:57.600Z,6.24
2019-03-05T22:53:40.559Z,6.19
2019-03-05T22:59:33.047Z,5.97
2019-03-05T23:02:05.351Z,5.98
2019-03-05T23:04:45.096Z,5.98
2019-03-05T23:07:17.013Z,5.90
2019-03-05T23:09:49.548Z,6.01
2019-03-05T23:12:21.586Z,6.05
2019-03-05T23:14:55.902Z,5.87
2019-03-05T23:17:30.916Z,5.86
2019-03-05T23:20:02.737Z,5.86
2019-03-05T23:22:34.975Z,5.93
2019-03-05T23:25:09.269Z,5.94
2019-03-05T23:27:41.752Z,5.90
2019-03-05T23:30:19.573Z,5.77
2019-03-05T23:32:57.267Z,5.76
2019-03-05T23:35:28.977Z,5.81
2019-03-05T23:38:01.468Z,5.85
2019-03-05T23:40:34.864Z,5.93
2019-03-05T23:43:06.545Z,5.87
2019-03-05T23:45:38.287Z,5.80
2019-03-05T23:48:10.786Z,5.87
2019-03-05T23:50:43.129Z,5.71
2019-03-05T23:53:15.462Z,5.68
2019-03-05T23:55:47.054Z,5.81
2019-03-05T23:58:18.666Z,5.69
